createdAt,value
2019-02-06T00:01:39.779Z,35.50
2019-02-06T00:04:15.300Z,32.90
2019-02-06T00:06:47.459Z,31.40
2019-02-06T00:20:53.553Z,29.90
2019-02-06T00:23:26.258Z,38.77
2019-02-06T00:25:58.785Z,35.23
2019-02-06T00:28:31.510Z,35.17
2019-02-06T00:31:05.307Z,34.80
2019-02-06T00:33:38.229Z,35.13
2019-02-06T00:36:12.476Z,38.37
2019-02-06T00:38:45.180Z,32.80
2019-02-06T00:41:17.760Z,35.83
2019-02-06T00:43:50.309Z,36.00
2019-02-06T00:46:23.046Z,37.27
2019-02-06T00:48:56.045Z,32.90
2019-02-06T00:51:28.566Z,33.97
2019-02-06T00:54:01.089Z,32.13
2019-02-06T00:56:33.580Z,30.83
2019-02-06T00:59:07.644Z,40.43
2019-02-06T01:01:40.403Z,37.07
2019-02-06T01:04:13.355Z,39.10
2019-02-06T01:06:45.912Z,34.00
2019-02-06T01:09:18.665Z,31.63
2019-02-06T01:11:51.580Z,33.30
2019-02-06T01:14:24.623Z,34.73
2019-02-06T01:16:57.488Z,33.00
2019-02-06T01:19:29.972Z,37.33
2019-02-06T01:22:13.590Z,37.83
2019-02-06T01:24:46.204Z,35.37
2019-02-06T01:27:18.874Z,41.20
2019-02-06T01:29:51.526Z,34.87
2019-02-06T01:32:24.309Z,42.23
2019-02-06T01:34:56.953Z,42.97
2019-02-06T01:37:29.577Z,41.47
2019-02-06T01:40:13.630Z,41.67
2019-02-06T01:42:57.092Z,38.73
2019-02-06T01:45:30.000Z,40.43
2019-02-06T01:48:02.883Z,37.83
2019-02-06T01:50:35.184Z,38.97
2019-02-06T01:53:08.412Z,38.20
2019-02-06T01:55:40.977Z,41.30
2019-02-06T01:58:13.707Z,38.83
2019-02-06T02:00:46.252Z,40.87
2019-02-06T02:03:18.854Z,36.30
2019-02-06T02:06:01.830Z,35.50
2019-02-06T02:08:26.413Z,40.07
2019-02-06T02:10:58.972Z,36.93
2019-02-06T02:13:31.588Z,38.53
2019-02-06T02:16:04.155Z,39.83
2019-02-06T02:18:37.062Z,38.17
2019-02-06T02:21:09.764Z,39.87
2019-02-06T02:23:42.637Z,38.10
2019-02-06T02:26:15.452Z,39.00
2019-02-06T02:28:49.163Z,37.77
2019-02-06T02:31:21.720Z,37.30
2019-02-06T02:33:54.041Z,36.77
2019-02-06T02:36:27.278Z,35.30
2019-02-06T02:38:59.779Z,36.47
2019-02-06T02:41:32.333Z,39.40
2019-02-06T02:44:05.796Z,37.17
2019-02-06T02:46:38.605Z,44.27
2019-02-06T02:49:11.673Z,39.83
2019-02-06T02:51:44.596Z,40.43
2019-02-06T02:54:17.342Z,39.30
2019-02-06T02:56:50.113Z,38.40
2019-02-06T02:59:23.098Z,41.77
2019-02-06T03:02:02.925Z,39.70
2019-02-06T03:04:39.846Z,37.93
2019-02-06T03:07:12.215Z,41.27
2019-02-06T03:09:44.783Z,37.10
2019-02-06T03:12:17.867Z,35.23
2019-02-06T03:14:50.392Z,40.07
2019-02-06T03:17:22.986Z,42.57
2019-02-06T03:19:55.536Z,38.63
2019-02-06T03:22:28.214Z,39.40
2019-02-06T03:25:01.051Z,44.50
2019-02-06T03:27:33.440Z,39.27
2019-02-06T03:30:07.780Z,34.70
2019-02-06T03:32:41.417Z,37.37
2019-02-06T03:35:14.217Z,40.50
2019-02-06T03:37:46.995Z,41.17
2019-02-06T03:40:20.149Z,37.23
2019-02-06T03:42:53.062Z,43.77
2019-02-06T03:45:25.814Z,41.17
2019-02-06T03:47:58.506Z,40.97
2019-02-06T03:50:31.001Z,42.97
2019-02-06T03:53:03.583Z,38.77
2019-02-06T03:55:36.082Z,43.43
2019-02-06T03:58:08.830Z,46.37
2019-02-06T04:00:41.496Z,45.40
2019-02-06T04:03:14.147Z,44.17
2019-02-06T04:05:46.711Z,42.13
2019-02-06T04:08:19.023Z,41.23
2019-02-06T04:10:51.633Z,41.57
2019-02-06T04:13:24.365Z,42.33
2019-02-06T04:15:56.848Z,46.50
2019-02-06T04:18:29.525Z,43.13
2019-02-06T04:21:02.227Z,39.87
2019-02-06T04:23:34.830Z,38.77
2019-02-06T04:26:07.753Z,42.37
2019-02-06T04:28:40.359Z,40.13
2019-02-06T04:31:12.878Z,44.87
2019-02-06T04:33:45.697Z,42.73
2019-02-06T04:36:18.434Z,40.97
2019-02-06T04:38:51.069Z,39.27
2019-02-06T04:41:23.425Z,40.43
2019-02-06T04:43:56.027Z,41.77
2019-02-06T04:46:28.489Z,46.37
2019-02-06T04:49:00.905Z,40.93
2019-02-06T04:51:33.435Z,41.60
2019-02-06T04:54:06.165Z,37.83
2019-02-06T04:56:38.909Z,43.63
2019-02-06T04:59:11.800Z,48.03
2019-02-06T05:01:44.321Z,40.67
2019-02-06T05:04:16.745Z,45.07
2019-02-06T05:06:49.943Z,40.90
2019-02-06T05:09:22.962Z,46.20
2019-02-06T05:11:55.729Z,47.40
2019-02-06T05:14:28.252Z,45.87
2019-02-06T05:17:01.033Z,42.80
2019-02-06T05:19:33.735Z,47.50
2019-02-06T05:22:07.282Z,49.03
2019-02-06T05:24:40.073Z,49.37
2019-02-06T05:27:12.726Z,54.50
2019-02-06T05:29:45.427Z,55.97
2019-02-06T05:32:18.038Z,53.10
2019-02-06T05:34:50.620Z,44.43
2019-02-06T05:37:31.762Z,46.67
2019-02-06T05:39:58.119Z,48.40
2019-02-06T05:42:30.678Z,50.30
2019-02-06T05:45:03.680Z,45.20
2019-02-06T05:47:36.218Z,47.70
2019-02-06T05:50:09.945Z,47.03
2019-02-06T05:52:43.004Z,47.70
2019-02-06T05:55:16.493Z,46.13
2019-02-06T05:57:50.126Z,63.13
2019-02-06T06:00:39.179Z,45.53
2019-02-06T06:03:12.008Z,45.23
2019-02-06T06:05:45.068Z,44.80
2019-02-06T06:08:17.717Z,43.83
2019-02-06T06:10:50.526Z,46.30
2019-02-06T06:13:23.396Z,46.30
2019-02-06T06:15:56.074Z,46.07
2019-02-06T06:18:28.799Z,48.13
2019-02-06T06:21:01.125Z,42.10
2019-02-06T06:23:33.729Z,47.23
2019-02-06T06:26:06.452Z,37.30
2019-02-06T06:28:39.004Z,38.73
2019-02-06T06:31:12.015Z,37.10
2019-02-06T06:33:44.813Z,38.90
2019-02-06T06:36:17.448Z,31.63
2019-02-06T06:38:51.740Z,26.60
2019-02-06T06:41:24.320Z,25.10
2019-02-06T06:43:57.714Z,28.67
2019-02-06T06:46:30.251Z,32.10
2019-02-06T06:49:02.784Z,72.87
2019-02-06T06:51:35.408Z,99.77
2019-02-06T06:54:08.160Z,27.77
2019-02-06T06:56:41.232Z,30.90
2019-02-06T06:59:13.887Z,31.87
2019-02-06T07:01:46.837Z,29.80
2019-02-06T07:04:19.785Z,30.00
2019-02-06T07:06:52.546Z,27.30
2019-02-06T07:09:25.268Z,29.37
2019-02-06T07:11:58.141Z,29.83
2019-02-06T07:14:30.888Z,31.93
2019-02-06T07:17:03.653Z,26.10
2019-02-06T07:19:36.644Z,28.00
2019-02-06T07:22:09.562Z,26.70
2019-02-06T07:24:42.465Z,29.70
2019-02-06T07:27:15.176Z,24.87
2019-02-06T07:29:47.992Z,26.07
2019-02-06T07:32:20.519Z,24.80
2019-02-06T07:34:52.928Z,26.23
2019-02-06T07:37:25.812Z,23.63
2019-02-06T07:39:58.359Z,27.83
2019-02-06T07:42:31.044Z,29.67
2019-02-06T07:45:03.773Z,22.37
2019-02-06T07:47:36.330Z,23.53
2019-02-06T07:50:12.897Z,22.10
2019-02-06T07:52:46.008Z,22.10
2019-02-06T07:55:19.075Z,20.43
2019-02-06T07:57:51.591Z,21.60
2019-02-06T08:00:24.082Z,20.27
2019-02-06T08:02:57.248Z,19.77
2019-02-06T08:05:30.464Z,19.90
2019-02-06T08:08:03.242Z,18.67
2019-02-06T08:10:36.588Z,18.83
2019-02-06T08:13:09.356Z,18.00
2019-02-06T08:15:42.158Z,16.60
2019-02-06T08:18:14.934Z,18.60
2019-02-06T08:20:47.509Z,17.53
2019-02-06T08:23:20.070Z,18.87
2019-02-06T08:25:52.568Z,18.50
2019-02-06T08:28:25.111Z,18.50
2019-02-06T08:30:57.910Z,18.30
2019-02-06T08:33:30.566Z,18.20
2019-02-06T08:36:03.032Z,18.95
2019-02-06T08:38:47.082Z,18.00
2019-02-06T08:41:09.742Z,20.17
2019-02-06T08:43:42.306Z,17.65
2019-02-06T08:46:15.062Z,18.45
2019-02-06T08:48:47.651Z,18.77
2019-02-06T08:51:20.227Z,18.05
2019-02-06T08:53:53.043Z,18.73
2019-02-06T08:56:25.729Z,17.53
2019-02-06T08:58:59.189Z,15.85
2019-02-06T09:01:31.896Z,15.95
2019-02-06T09:04:04.562Z,15.68
2019-02-06T09:06:38.773Z,15.35
2019-02-06T09:09:14.127Z,16.12
2019-02-06T09:11:46.691Z,16.70
2019-02-06T09:14:19.593Z,16.02
2019-02-06T09:16:52.292Z,16.30
2019-02-06T09:19:24.823Z,17.80
2019-02-06T09:21:57.549Z,17.62
2019-02-06T09:24:30.098Z,16.67
2019-02-06T09:27:03.232Z,17.73
2019-02-06T09:29:36.760Z,16.35
2019-02-06T09:32:09.564Z,18.02
2019-02-06T09:34:42.149Z,16.40
2019-02-06T09:37:15.068Z,16.07
2019-02-06T09:39:47.685Z,19.70
2019-02-06T09:42:20.763Z,16.05
2019-02-06T09:44:53.229Z,17.10
2019-02-06T09:47:25.697Z,16.60
2019-02-06T09:49:58.004Z,18.42
2019-02-06T09:52:30.568Z,18.57
2019-02-06T09:55:03.547Z,18.20
2019-02-06T09:57:36.368Z,19.92
2019-02-06T10:00:15.074Z,18.90
2019-02-06T10:02:47.787Z,15.90
2019-02-06T10:05:20.616Z,16.93
2019-02-06T10:07:53.161Z,16.95
2019-02-06T10:10:26.814Z,19.13
2019-02-06T10:12:59.368Z,18.50
2019-02-06T10:15:34.957Z,17.12
2019-02-06T10:18:08.709Z,17.83
2019-02-06T10:20:45.499Z,18.05
2019-02-06T10:23:18.336Z,16.17
2019-02-06T10:25:53.626Z,19.03
2019-02-06T10:28:25.196Z,17.00
2019-02-06T10:30:57.848Z,16.70
2019-02-06T10:33:30.532Z,16.37
2019-02-06T10:36:03.998Z,16.85
2019-02-06T10:38:36.542Z,16.85
2019-02-06T10:41:09.258Z,16.10
2019-02-06T10:43:41.693Z,16.40
2019-02-06T10:46:14.292Z,16.17
2019-02-06T10:48:46.855Z,17.27
2019-02-06T10:51:19.712Z,16.33
2019-02-06T10:53:52.321Z,14.55
2019-02-06T10:56:33.157Z,16.07
2019-02-06T10:59:05.890Z,17.27
2019-02-06T11:01:38.642Z,15.50
2019-02-06T11:04:11.018Z,14.43
2019-02-06T11:06:43.682Z,16.00
2019-02-06T11:09:16.391Z,16.13
2019-02-06T11:11:48.866Z,15.83
2019-02-06T11:14:21.261Z,15.13
2019-02-06T11:16:54.183Z,15.10
2019-02-06T11:19:26.699Z,15.20
2019-02-06T11:21:59.533Z,15.77
2019-02-06T11:24:31.976Z,18.33
2019-02-06T11:27:04.799Z,16.30
2019-02-06T11:29:37.200Z,12.90
2019-02-06T11:32:09.998Z,14.07
2019-02-06T11:34:42.644Z,13.23
2019-02-06T11:37:15.477Z,14.83
2019-02-06T11:39:57.499Z,18.93
2019-02-06T11:42:22.797Z,14.70
2019-02-06T11:44:55.383Z,13.43
2019-02-06T11:47:27.839Z,13.00
2019-02-06T11:50:01.887Z,13.67
2019-02-06T11:52:34.485Z,14.43
2019-02-06T11:55:11.163Z,13.27
2019-02-06T11:57:43.913Z,12.17
2019-02-06T12:00:24.738Z,12.70
2019-02-06T12:02:58.529Z,13.80
2019-02-06T12:05:31.129Z,12.57
2019-02-06T12:08:03.586Z,12.33
2019-02-06T12:10:36.434Z,11.33
2019-02-06T12:13:09.575Z,11.60
2019-02-06T12:15:42.251Z,12.93
2019-02-06T12:18:15.944Z,13.20
2019-02-06T12:20:49.314Z,12.83
2019-02-06T12:23:31.877Z,11.07
2019-02-06T12:25:56.666Z,13.47
2019-02-06T12:28:29.313Z,11.97
2019-02-06T12:31:01.692Z,14.80
2019-02-06T12:33:36.657Z,13.33
2019-02-06T12:36:08.975Z,11.77
2019-02-06T12:38:52.727Z,12.50
2019-02-06T12:41:16.064Z,13.20
2019-02-06T12:43:48.623Z,12.77
2019-02-06T12:46:21.228Z,11.70
2019-02-06T12:48:54.144Z,13.20
2019-02-06T12:51:26.665Z,12.30
2019-02-06T12:54:00.871Z,14.70
2019-02-06T12:56:33.410Z,12.17
2019-02-06T12:59:06.130Z,13.70
2019-02-06T13:01:39.078Z,10.87
2019-02-06T13:04:11.573Z,13.30
2019-02-06T13:06:44.280Z,14.23
2019-02-06T13:09:16.697Z,14.00
2019-02-06T13:11:49.396Z,15.20
2019-02-06T13:14:21.982Z,15.20
2019-02-06T13:16:54.590Z,13.63
2019-02-06T13:19:27.808Z,12.97
2019-02-06T13:22:00.635Z,12.40
2019-02-06T13:24:32.988Z,15.93
2019-02-06T13:27:06.138Z,16.40
2019-02-06T13:29:39.659Z,14.77
2019-02-06T13:32:12.072Z,15.43
2019-02-06T13:34:45.046Z,15.03
2019-02-06T13:37:17.607Z,13.10
2019-02-06T13:39:50.573Z,15.37
2019-02-06T13:42:23.285Z,14.83
2019-02-06T13:44:56.645Z,17.30
2019-02-06T13:47:29.441Z,16.10
2019-02-06T13:50:02.373Z,15.23
2019-02-06T13:52:34.843Z,15.97
2019-02-06T13:55:09.688Z,16.23
2019-02-06T13:57:42.305Z,17.63
2019-02-06T14:00:22.288Z,16.23
2019-02-06T14:02:55.132Z,14.60
2019-02-06T14:05:30.717Z,17.87
2019-02-06T14:08:10.395Z,15.03
2019-02-06T14:10:43.257Z,18.63
2019-02-06T14:13:15.982Z,17.30
2019-02-06T14:15:50.456Z,15.53
2019-02-06T14:18:23.012Z,15.30
2019-02-06T14:20:56.320Z,20.33
2019-02-06T14:24:04.397Z,20.13
2019-02-06T14:27:39.273Z,21.43
2019-02-06T14:31:32.420Z,22.87
2019-02-06T14:34:31.046Z,28.03
2019-02-06T14:37:53.476Z,18.23
2019-02-06T14:41:15.900Z,16.07
2019-02-06T14:45:11.768Z,20.27
2019-02-06T14:48:38.265Z,18.10
2019-02-06T14:52:14.817Z,18.63
2019-02-06T14:56:09.339Z,21.60
2019-02-06T14:59:44.152Z,18.83
2019-02-06T15:02:53.214Z,19.63
2019-02-06T15:06:18.797Z,17.13
2019-02-06T15:09:54.391Z,16.20
2019-02-06T15:13:47.523Z,18.37
2019-02-06T15:17:37.865Z,19.47
2019-02-06T15:20:29.330Z,17.97
2019-02-06T15:23:49.310Z,17.80
2019-02-06T15:27:05.209Z,18.63
2019-02-06T15:30:08.683Z,20.10
2019-02-06T15:33:34.583Z,18.17
2019-02-06T15:36:33.978Z,18.77
2019-02-06T15:39:50.166Z,20.23
2019-02-06T15:43:22.963Z,19.53
2019-02-06T15:46:38.593Z,21.17
2019-02-06T15:49:38.174Z,19.70
2019-02-06T15:52:36.625Z,18.30
2019-02-06T15:56:07.284Z,19.70
2019-02-06T15:59:34.439Z,18.90
2019-02-06T16:03:11.535Z,17.77
2019-02-06T16:06:41.773Z,19.50
2019-02-06T16:10:19.007Z,20.93
2019-02-06T16:13:52.311Z,20.40
2019-02-06T16:17:19.373Z,21.37
2019-02-06T16:20:37.454Z,19.50
2019-02-06T16:23:35.046Z,22.50
2019-02-06T16:27:09.972Z,21.03
2019-02-06T16:30:53.378Z,21.67
2019-02-06T16:34:25.853Z,20.50
2019-02-06T16:37:39.068Z,20.97
2019-02-06T16:41:07.803Z,26.70
2019-02-06T16:44:32.169Z,23.57
2019-02-06T16:47:58.513Z,22.20
2019-02-06T16:51:08.433Z,26.77
2019-02-06T16:54:41.246Z,26.57
2019-02-06T16:58:01.755Z,20.93
2019-02-06T17:01:19.157Z,16.67
2019-02-06T17:04:29.466Z,20.13
2019-02-06T17:08:21.142Z,20.27
2019-02-06T17:11:20.451Z,15.83
2019-02-06T17:14:36.810Z,17.33
2019-02-06T17:18:05.630Z,20.03
2019-02-06T17:21:22.850Z,18.50
2019-02-06T17:25:17.332Z,22.47
2019-02-06T17:28:40.207Z,17.10
2019-02-06T17:32:09.324Z,20.53
2019-02-06T17:35:28.754Z,18.77
2019-02-06T17:39:00.809Z,23.87
2019-02-06T17:41:47.684Z,20.10
2019-02-06T17:45:30.370Z,21.57
2019-02-06T17:48:50.887Z,21.40
2019-02-06T17:52:11.267Z,52.67
2019-02-06T17:55:25.318Z,28.83
2019-02-06T17:58:10.796Z,24.77
2019-02-06T18:00:54.875Z,21.33
2019-02-06T18:03:28.520Z,20.47
2019-02-06T18:06:01.187Z,22.90
2019-02-06T18:08:33.699Z,19.93
2019-02-06T18:11:06.625Z,22.57
2019-02-06T18:13:39.268Z,21.50
2019-02-06T18:16:21.077Z,19.90
2019-02-06T18:18:46.492Z,21.67
2019-02-06T18:21:18.917Z,22.33
2019-02-06T18:23:51.438Z,20.23
2019-02-06T18:26:24.507Z,22.67
2019-02-06T18:28:57.744Z,23.80
2019-02-06T18:31:30.413Z,20.00
2019-02-06T18:34:07.104Z,22.63
2019-02-06T18:36:39.833Z,22.17
2019-02-06T18:39:18.796Z,21.37
2019-02-06T18:41:52.023Z,23.20
2019-02-06T18:44:25.225Z,22.17
2019-02-06T18:46:58.795Z,20.93
2019-02-06T18:49:31.309Z,19.87
2019-02-06T18:52:04.463Z,20.67
2019-02-06T18:54:36.934Z,122.17
2019-02-06T18:57:10.257Z,51.10
2019-02-06T18:59:42.807Z,27.33
2019-02-06T19:02:17.828Z,23.47
2019-02-06T19:04:50.413Z,24.50
2019-02-06T19:07:23.734Z,23.53
2019-02-06T19:09:56.536Z,21.00
2019-02-06T19:12:29.311Z,23.17
2019-02-06T19:15:02.052Z,21.67
2019-02-06T19:17:35.202Z,21.03
2019-02-06T19:20:10.541Z,21.07
2019-02-06T19:22:43.312Z,23.37
2019-02-06T19:25:16.568Z,21.30
2019-02-06T19:27:49.520Z,24.20
2019-02-06T19:30:29.853Z,20.63
2019-02-06T19:33:02.657Z,21.63
2019-02-06T19:35:35.601Z,20.77
2019-02-06T19:38:22.120Z,20.40
2019-02-06T19:40:54.795Z,20.60
2019-02-06T19:43:27.941Z,24.93
2019-02-06T19:46:00.855Z,22.77
2019-02-06T19:48:33.541Z,23.83
2019-02-06T19:51:06.426Z,27.00
2019-02-06T19:53:39.333Z,25.50
2019-02-06T19:56:12.315Z,20.80
2019-02-06T19:58:44.908Z,19.30
2019-02-06T20:01:17.715Z,23.93
2019-02-06T20:03:52.607Z,23.13
2019-02-06T20:06:31.683Z,23.13
2019-02-06T20:09:10.403Z,25.20
2019-02-06T20:11:43.626Z,22.33
2019-02-06T20:14:16.346Z,23.47
2019-02-06T20:17:08.309Z,25.27
2019-02-06T20:19:41.041Z,22.63
2019-02-06T20:22:13.515Z,28.20
2019-02-06T20:24:57.662Z,22.80
2019-02-06T20:27:31.765Z,23.20
2019-02-06T20:30:05.547Z,25.73
2019-02-06T20:32:40.014Z,196.30
2019-02-06T20:35:14.607Z,75.93
2019-02-06T20:37:47.244Z,28.20
2019-02-06T20:40:23.909Z,27.73
2019-02-06T20:42:56.652Z,24.43
2019-02-06T20:45:29.509Z,34.33
2019-02-06T20:48:02.196Z,26.03
2019-02-06T20:50:35.976Z,25.83
2019-02-06T20:53:09.054Z,23.67
2019-02-06T20:55:42.116Z,24.87
2019-02-06T20:58:15.093Z,20.77
2019-02-06T21:00:47.857Z,25.13
2019-02-06T21:03:20.623Z,24.37
2019-02-06T21:05:53.421Z,25.00
2019-02-06T21:08:26.372Z,25.53
2019-02-06T21:11:01.738Z,26.47
2019-02-06T21:13:34.437Z,28.03
2019-02-06T21:16:07.170Z,22.70
2019-02-06T21:18:39.707Z,25.03
2019-02-06T21:21:12.534Z,25.13
2019-02-06T21:23:45.434Z,25.30
2019-02-06T21:26:18.158Z,25.23
2019-02-06T21:28:51.251Z,24.63
2019-02-06T21:31:23.843Z,21.97
2019-02-06T21:33:56.673Z,22.63
2019-02-06T21:36:29.547Z,25.03
2019-02-06T21:39:02.472Z,27.77
2019-02-06T21:41:35.102Z,26.83
2019-02-06T21:44:08.075Z,26.57
2019-02-06T21:46:40.925Z,100.10
2019-02-06T21:49:13.537Z,59.37
2019-02-06T21:51:46.409Z,34.00
2019-02-06T21:54:19.954Z,27.73
2019-02-06T21:56:52.443Z,30.63
2019-02-06T21:59:25.241Z,28.00
2019-02-06T22:01:58.179Z,26.13
2019-02-06T22:04:31.058Z,32.93
2019-02-06T22:07:03.755Z,31.07
2019-02-06T22:09:36.463Z,44.20
2019-02-06T22:12:08.946Z,33.63
2019-02-06T22:14:41.581Z,28.17
2019-02-06T22:17:15.784Z,27.73
2019-02-06T22:19:48.693Z,26.00
2019-02-06T22:22:21.522Z,27.33
2019-02-06T22:24:54.180Z,26.43
2019-02-06T22:27:26.920Z,22.77
2019-02-06T22:29:59.726Z,30.13
2019-02-06T22:32:33.214Z,25.50
2019-02-06T22:35:06.730Z,26.80
2019-02-06T22:37:39.318Z,27.27
2019-02-06T22:40:15.704Z,24.97
2019-02-06T22:42:48.114Z,31.43
2019-02-06T22:45:23.325Z,28.93
2019-02-06T22:47:56.136Z,32.27
2019-02-06T22:50:29.797Z,29.57
2019-02-06T22:53:02.414Z,37.63
2019-02-06T22:55:34.968Z,36.10
2019-02-06T22:58:07.669Z,36.30
2019-02-06T23:01:38.625Z,34.67
2019-02-06T23:04:11.205Z,29.80
2019-02-06T23:06:43.693Z,28.37
2019-02-06T23:09:16.185Z,29.83
2019-02-06T23:11:49.050Z,37.80
2019-02-06T23:14:32.529Z,42.37
2019-02-06T23:17:05.765Z,40.90
2019-02-06T23:19:38.334Z,39.80
2019-02-06T23:22:11.413Z,40.00
2019-02-06T23:24:44.204Z,36.73
2019-02-06T23:27:16.817Z,50.37
2019-02-06T23:29:49.304Z,56.13
2019-02-06T23:32:21.540Z,55.17
2019-02-06T23:34:54.063Z,56.47
2019-02-06T23:37:27.204Z,76.90
2019-02-06T23:40:00.313Z,82.37
2019-02-06T23:42:32.907Z,52.17
2019-02-06T23:45:06.343Z,52.80
2019-02-06T23:47:38.951Z,67.17
2019-02-06T23:50:11.529Z,57.13
2019-02-06T23:52:44.516Z,54.60
2019-02-06T23:55:17.468Z,54.87
2019-02-06T23:57:51.158Z,44.67
